sensor_id;sensor_type;location;lat;lon;timestamp;temperature;humidity
24618;DHT22;12762;51.730;5.356;2023-08-30T00:01:33;14.30;73.70
24618;DHT22;12762;51.730;5.356;2023-08-30T00:04:00;14.30;73.90
24618;DHT22;12762;51.730;5.356;2023-08-30T00:06:27;14.30;73.90
24618;DHT22;12762;51.730;5.356;2023-08-30T00:08:54;14.30;74.00
24618;DHT22;12762;51.730;5.356;2023-08-30T00:11:23;14.20;74.00
24618;DHT22;12762;51.730;5.356;2023-08-30T00:13:50;14.20;74.00
24618;DHT22;12762;51.730;5.356;2023-08-30T00:16:16;14.20;74.10
24618;DHT22;12762;51.730;5.356;2023-08-30T00:18:44;14.20;74.10
24618;DHT22;12762;51.730;5.356;2023-08-30T00:21:11;14.20;74.20
24618;DHT22;12762;51.730;5.356;2023-08-30T00:23:41;14.20;74.30
24618;DHT22;12762;51.730;5.356;2023-08-30T00:26:10;14.10;74.20
24618;DHT22;12762;51.730;5.356;2023-08-30T00:28:37;14.10;74.30
24618;DHT22;12762;51.730;5.356;2023-08-30T00:31:04;14.10;74.40
24618;DHT22;12762;51.730;5.356;2023-08-30T00:33:31;14.00;74.30
24618;DHT22;12762;51.730;5.356;2023-08-30T00:35:59;14.00;74.40
24618;DHT22;12762;51.730;5.356;2023-08-30T00:38:27;14.00;74.50
24618;DHT22;12762;51.730;5.356;2023-08-30T00:40:57;14.00;74.60
24618;DHT22;12762;51.730;5.356;2023-08-30T00:43:24;14.00;74.60
24618;DHT22;12762;51.730;5.356;2023-08-30T00:45:51;13.90;74.50
24618;DHT22;12762;51.730;5.356;2023-08-30T00:48:19;13.90;74.60
24618;DHT22;12762;51.730;5.356;2023-08-30T00:50:46;13.90;74.70
24618;DHT22;12762;51.730;5.356;2023-08-30T00:53:14;13.90;74.70
24618;DHT22;12762;51.730;5.356;2023-08-30T00:55:42;13.80;74.70
24618;DHT22;12762;51.730;5.356;2023-08-30T00:58:09;13.80;74.70
24618;DHT22;12762;51.730;5.356;2023-08-30T01:00:39;13.80;74.70
24618;DHT22;12762;51.730;5.356;2023-08-30T01:03:06;13.80;74.80
24618;DHT22;12762;51.730;5.356;2023-08-30T01:05:36;13.70;74.70
24618;DHT22;12762;51.730;5.356;2023-08-30T01:08:04;13.70;74.80
24618;DHT22;12762;51.730;5.356;2023-08-30T01:10:47;13.70;74.80
24618;DHT22;12762;51.730;5.356;2023-08-30T01:13:19;13.70;74.90
24618;DHT22;12762;51.730;5.356;2023-08-30T01:15:51;13.60;74.80
24618;DHT22;12762;51.730;5.356;2023-08-30T01:18:20;13.60;74.80
24618;DHT22;12762;51.730;5.356;2023-08-30T01:20:52;13.60;74.80
24618;DHT22;12762;51.730;5.356;2023-08-30T01:23:26;13.60;74.90
24618;DHT22;12762;51.730;5.356;2023-08-30T01:28:33;13.60;74.90
24618;DHT22;12762;51.730;5.356;2023-08-30T01:31:08;13.50;75.70
24618;DHT22;12762;51.730;5.356;2023-08-30T01:33:37;13.50;74.80
24618;DHT22;12762;51.730;5.356;2023-08-30T01:36:06;13.50;74.80
24618;DHT22;12762;51.730;5.356;2023-08-30T01:38:33;13.50;74.80
24618;DHT22;12762;51.730;5.356;2023-08-30T01:41:02;13.50;74.90
24618;DHT22;12762;51.730;5.356;2023-08-30T01:43:30;13.50;75.00
24618;DHT22;12762;51.730;5.356;2023-08-30T01:45:59;13.50;75.00
24618;DHT22;12762;51.730;5.356;2023-08-30T01:48:27;13.50;74.90
24618;DHT22;12762;51.730;5.356;2023-08-30T01:50:56;13.40;74.90
24618;DHT22;12762;51.730;5.356;2023-08-30T01:53:25;13.40;74.80
24618;DHT22;12762;51.730;5.356;2023-08-30T01:55:53;13.40;74.90
24618;DHT22;12762;51.730;5.356;2023-08-30T01:58:20;13.40;75.00
24618;DHT22;12762;51.730;5.356;2023-08-30T02:00:47;13.30;75.00
24618;DHT22;12762;51.730;5.356;2023-08-30T02:03:14;13.30;75.00
24618;DHT22;12762;51.730;5.356;2023-08-30T02:06:08;13.30;75.10
24618;DHT22;12762;51.730;5.356;2023-08-30T02:08:48;13.30;75.00
24618;DHT22;12762;51.730;5.356;2023-08-30T02:11:23;13.30;75.30
24618;DHT22;12762;51.730;5.356;2023-08-30T02:13:53;13.20;75.20
24618;DHT22;12762;51.730;5.356;2023-08-30T02:16:22;13.30;75.40
24618;DHT22;12762;51.730;5.356;2023-08-30T02:18:50;13.30;75.40
24618;DHT22;12762;51.730;5.356;2023-08-30T02:21:17;13.30;75.40
24618;DHT22;12762;51.730;5.356;2023-08-30T02:23:51;13.30;75.50
24618;DHT22;12762;51.730;5.356;2023-08-30T02:26:21;13.30;75.50
24618;DHT22;12762;51.730;5.356;2023-08-30T02:28:48;13.30;75.60
24618;DHT22;12762;51.730;5.356;2023-08-30T02:31:15;13.30;75.50
24618;DHT22;12762;51.730;5.356;2023-08-30T02:33:42;13.30;75.50
24618;DHT22;12762;51.730;5.356;2023-08-30T02:36:08;13.30;75.60
24618;DHT22;12762;51.730;5.356;2023-08-30T02:38:35;13.20;75.50
24618;DHT22;12762;51.730;5.356;2023-08-30T02:41:02;13.20;75.50
24618;DHT22;12762;51.730;5.356;2023-08-30T02:43:29;13.20;75.50
24618;DHT22;12762;51.730;5.356;2023-08-30T02:45:59;13.20;75.60
24618;DHT22;12762;51.730;5.356;2023-08-30T02:48:27;13.20;75.60
24618;DHT22;12762;51.730;5.356;2023-08-30T02:50:54;13.20;75.60
24618;DHT22;12762;51.730;5.356;2023-08-30T02:53:22;13.20;75.70
24618;DHT22;12762;51.730;5.356;2023-08-30T02:55:48;13.10;75.60
24618;DHT22;12762;51.730;5.356;2023-08-30T02:58:15;13.10;75.70
24618;DHT22;12762;51.730;5.356;2023-08-30T03:00:42;13.10;75.80
24618;DHT22;12762;51.730;5.356;2023-08-30T03:03:09;13.10;75.80
24618;DHT22;12762;51.730;5.356;2023-08-30T03:05:39;13.10;75.80
24618;DHT22;12762;51.730;5.356;2023-08-30T03:08:06;13.00;75.90
24618;DHT22;12762;51.730;5.356;2023-08-30T03:10:34;13.00;75.80
24618;DHT22;12762;51.730;5.356;2023-08-30T03:13:01;13.00;75.80
24618;DHT22;12762;51.730;5.356;2023-08-30T03:15:31;13.00;75.90
24618;DHT22;12762;51.730;5.356;2023-08-30T03:18:00;13.00;76.00
24618;DHT22;12762;51.730;5.356;2023-08-30T03:20:27;13.00;76.10
24618;DHT22;12762;51.730;5.356;2023-08-30T03:22:57;13.00;76.10
24618;DHT22;12762;51.730;5.356;2023-08-30T03:25:24;12.90;76.10
24618;DHT22;12762;51.730;5.356;2023-08-30T03:27:51;12.90;76.10
24618;DHT22;12762;51.730;5.356;2023-08-30T03:30:19;12.90;76.20
24618;DHT22;12762;51.730;5.356;2023-08-30T03:32:45;12.90;76.20
24618;DHT22;12762;51.730;5.356;2023-08-30T03:35:12;12.90;76.20
24618;DHT22;12762;51.730;5.356;2023-08-30T03:37:41;12.90;76.30
24618;DHT22;12762;51.730;5.356;2023-08-30T03:40:08;12.90;76.40
24618;DHT22;12762;51.730;5.356;2023-08-30T03:42:36;12.90;76.40
24618;DHT22;12762;51.730;5.356;2023-08-30T03:45:03;12.80;76.40
24618;DHT22;12762;51.730;5.356;2023-08-30T03:47:32;12.80;76.50
24618;DHT22;12762;51.730;5.356;2023-08-30T03:49:59;12.80;76.50
24618;DHT22;12762;51.730;5.356;2023-08-30T03:52:25;12.80;76.60
24618;DHT22;12762;51.730;5.356;2023-08-30T03:54:52;12.80;76.60
24618;DHT22;12762;51.730;5.356;2023-08-30T03:57:19;12.80;76.70
24618;DHT22;12762;51.730;5.356;2023-08-30T03:59:46;12.80;76.70
24618;DHT22;12762;51.730;5.356;2023-08-30T04:02:13;12.80;76.80
24618;DHT22;12762;51.730;5.356;2023-08-30T04:04:40;12.80;76.90
24618;DHT22;12762;51.730;5.356;2023-08-30T04:07:06;12.70;76.80
24618;DHT22;12762;51.730;5.356;2023-08-30T04:09:37;12.70;76.80
24618;DHT22;12762;51.730;5.356;2023-08-30T04:12:03;12.70;76.80
24618;DHT22;12762;51.730;5.356;2023-08-30T04:14:31;12.70;76.80
24618;DHT22;12762;51.730;5.356;2023-08-30T04:16:58;12.70;76.90
24618;DHT22;12762;51.730;5.356;2023-08-30T04:19:25;12.70;76.90
24618;DHT22;12762;51.730;5.356;2023-08-30T04:21:52;12.60;77.00
24618;DHT22;12762;51.730;5.356;2023-08-30T04:24:19;12.60;76.90
24618;DHT22;12762;51.730;5.356;2023-08-30T04:26:46;12.60;77.10
24618;DHT22;12762;51.730;5.356;2023-08-30T04:29:21;12.60;77.30
24618;DHT22;12762;51.730;5.356;2023-08-30T04:31:48;12.60;77.40
24618;DHT22;12762;51.730;5.356;2023-08-30T04:34:15;12.60;77.40
24618;DHT22;12762;51.730;5.356;2023-08-30T04:36:42;12.70;77.50
24618;DHT22;12762;51.730;5.356;2023-08-30T04:39:09;12.70;77.50
24618;DHT22;12762;51.730;5.356;2023-08-30T04:41:36;12.70;77.50
24618;DHT22;12762;51.730;5.356;2023-08-30T04:44:04;12.70;77.60
24618;DHT22;12762;51.730;5.356;2023-08-30T04:46:31;12.70;78.40
24618;DHT22;12762;51.730;5.356;2023-08-30T04:48:58;12.70;77.70
24618;DHT22;12762;51.730;5.356;2023-08-30T04:51:25;12.70;77.70
24618;DHT22;12762;51.730;5.356;2023-08-30T04:53:52;12.80;77.80
24618;DHT22;12762;51.730;5.356;2023-08-30T04:56:19;12.80;77.80
24618;DHT22;12762;51.730;5.356;2023-08-30T04:58:45;12.80;77.90
24618;DHT22;12762;51.730;5.356;2023-08-30T05:01:15;12.90;77.90
24618;DHT22;12762;51.730;5.356;2023-08-30T05:03:43;12.90;77.90
24618;DHT22;12762;51.730;5.356;2023-08-30T05:06:12;12.90;77.80
24618;DHT22;12762;51.730;5.356;2023-08-30T05:08:42;12.90;77.90
24618;DHT22;12762;51.730;5.356;2023-08-30T05:11:09;13.00;78.00
24618;DHT22;12762;51.730;5.356;2023-08-30T05:13:37;13.00;78.00
24618;DHT22;12762;51.730;5.356;2023-08-30T05:16:04;13.10;78.00
24618;DHT22;12762;51.730;5.356;2023-08-30T05:18:31;13.10;78.00
24618;DHT22;12762;51.730;5.356;2023-08-30T05:21:01;13.10;78.10
24618;DHT22;12762;51.730;5.356;2023-08-30T05:23:30;13.20;78.20
24618;DHT22;12762;51.730;5.356;2023-08-30T05:26:00;13.20;78.30
24618;DHT22;12762;51.730;5.356;2023-08-30T05:28:27;13.20;78.30
24618;DHT22;12762;51.730;5.356;2023-08-30T05:30:54;13.30;78.40
24618;DHT22;12762;51.730;5.356;2023-08-30T05:33:21;13.40;78.50
24618;DHT22;12762;51.730;5.356;2023-08-30T05:35:48;13.40;78.50
24618;DHT22;12762;51.730;5.356;2023-08-30T05:38:15;13.50;78.60
24618;DHT22;12762;51.730;5.356;2023-08-30T05:40:41;13.50;78.60
24618;DHT22;12762;51.730;5.356;2023-08-30T05:43:11;13.50;78.60
24618;DHT22;12762;51.730;5.356;2023-08-30T05:45:38;13.60;78.60
24618;DHT22;12762;51.730;5.356;2023-08-30T05:48:08;13.70;78.60
24618;DHT22;12762;51.730;5.356;2023-08-30T05:50:39;13.70;78.80
24618;DHT22;12762;51.730;5.356;2023-08-30T05:53:07;13.70;78.70
24618;DHT22;12762;51.730;5.356;2023-08-30T05:55:39;13.80;78.80
24618;DHT22;12762;51.730;5.356;2023-08-30T05:58:06;13.90;78.90
24618;DHT22;12762;51.730;5.356;2023-08-30T06:00:34;13.90;78.90
24618;DHT22;12762;51.730;5.356;2023-08-30T06:03:01;14.00;79.00
24618;DHT22;12762;51.730;5.356;2023-08-30T06:05:29;14.00;79.00
24618;DHT22;12762;51.730;5.356;2023-08-30T06:07:56;14.10;79.20
24618;DHT22;12762;51.730;5.356;2023-08-30T06:10:23;14.20;79.30
24618;DHT22;12762;51.730;5.356;2023-08-30T06:12:50;14.20;79.20
24618;DHT22;12762;51.730;5.356;2023-08-30T06:15:17;14.30;79.40
24618;DHT22;12762;51.730;5.356;2023-08-30T06:17:44;14.30;79.40
24618;DHT22;12762;51.730;5.356;2023-08-30T06:20:15;14.30;79.40
24618;DHT22;12762;51.730;5.356;2023-08-30T06:22:41;14.40;79.50
24618;DHT22;12762;51.730;5.356;2023-08-30T06:25:11;14.40;79.50
24618;DHT22;12762;51.730;5.356;2023-08-30T06:27:41;14.40;79.50
24618;DHT22;12762;51.730;5.356;2023-08-30T06:30:11;14.50;79.70
24618;DHT22;12762;51.730;5.356;2023-08-30T06:32:38;14.50;79.90
24618;DHT22;12762;51.730;5.356;2023-08-30T06:35:05;14.50;79.90
24618;DHT22;12762;51.730;5.356;2023-08-30T06:37:32;14.50;79.90
24618;DHT22;12762;51.730;5.356;2023-08-30T06:39:59;14.50;80.00
24618;DHT22;12762;51.730;5.356;2023-08-30T06:42:26;14.50;80.20
24618;DHT22;12762;51.730;5.356;2023-08-30T06:44:53;14.50;80.30
24618;DHT22;12762;51.730;5.356;2023-08-30T06:47:20;14.50;80.40
24618;DHT22;12762;51.730;5.356;2023-08-30T06:49:47;14.50;80.60
24618;DHT22;12762;51.730;5.356;2023-08-30T06:52:16;14.50;80.70
24618;DHT22;12762;51.730;5.356;2023-08-30T06:54:43;14.50;80.90
24618;DHT22;12762;51.730;5.356;2023-08-30T06:57:10;14.50;81.00
24618;DHT22;12762;51.730;5.356;2023-08-30T06:59:36;14.60;81.20
24618;DHT22;12762;51.730;5.356;2023-08-30T07:02:04;14.50;81.20
24618;DHT22;12762;51.730;5.356;2023-08-30T07:04:30;14.50;81.40
24618;DHT22;12762;51.730;5.356;2023-08-30T07:06:57;14.50;81.50
24618;DHT22;12762;51.730;5.356;2023-08-30T07:09:27;14.50;81.70
24618;DHT22;12762;51.730;5.356;2023-08-30T07:11:58;14.50;81.80
24618;DHT22;12762;51.730;5.356;2023-08-30T07:14:25;14.40;81.80
24618;DHT22;12762;51.730;5.356;2023-08-30T07:16:52;14.50;82.10
24618;DHT22;12762;51.730;5.356;2023-08-30T07:19:19;14.40;82.10
24618;DHT22;12762;51.730;5.356;2023-08-30T07:21:46;14.50;82.40
24618;DHT22;12762;51.730;5.356;2023-08-30T07:24:13;14.50;82.40
24618;DHT22;12762;51.730;5.356;2023-08-30T07:26:39;14.50;82.40
24618;DHT22;12762;51.730;5.356;2023-08-30T07:29:06;14.40;82.40
24618;DHT22;12762;51.730;5.356;2023-08-30T07:31:33;14.40;82.60
24618;DHT22;12762;51.730;5.356;2023-08-30T07:34:00;14.40;82.60
24618;DHT22;12762;51.730;5.356;2023-08-30T07:36:27;14.40;82.70
24618;DHT22;12762;51.730;5.356;2023-08-30T07:39:12;14.40;82.80
24618;DHT22;12762;51.730;5.356;2023-08-30T07:41:42;14.40;82.90
24618;DHT22;12762;51.730;5.356;2023-08-30T07:44:09;14.40;82.90
24618;DHT22;12762;51.730;5.356;2023-08-30T07:46:36;14.40;82.90
24618;DHT22;12762;51.730;5.356;2023-08-30T07:49:02;14.40;82.90
24618;DHT22;12762;51.730;5.356;2023-08-30T07:51:29;14.40;83.10
24618;DHT22;12762;51.730;5.356;2023-08-30T07:53:56;14.40;84.00
24618;DHT22;12762;51.730;5.356;2023-08-30T07:56:23;14.40;83.30
24618;DHT22;12762;51.730;5.356;2023-08-30T07:58:54;14.40;84.20
24618;DHT22;12762;51.730;5.356;2023-08-30T08:01:20;14.40;83.60
24618;DHT22;12762;51.730;5.356;2023-08-30T08:03:47;14.40;83.60
24618;DHT22;12762;51.730;5.356;2023-08-30T08:06:32;14.40;83.90
24618;DHT22;12762;51.730;5.356;2023-08-30T08:09:00;14.40;83.90
24618;DHT22;12762;51.730;5.356;2023-08-30T08:11:27;14.50;84.10
24618;DHT22;12762;51.730;5.356;2023-08-30T08:13:53;14.50;84.10
24618;DHT22;12762;51.730;5.356;2023-08-30T08:16:20;14.50;84.30
24618;DHT22;12762;51.730;5.356;2023-08-30T08:18:47;14.60;84.50
24618;DHT22;12762;51.730;5.356;2023-08-30T08:21:14;14.60;84.60
24618;DHT22;12762;51.730;5.356;2023-08-30T08:23:41;14.70;84.80
24618;DHT22;12762;51.730;5.356;2023-08-30T08:26:08;14.70;84.80
24618;DHT22;12762;51.730;5.356;2023-08-30T08:28:35;14.70;84.80
24618;DHT22;12762;51.730;5.356;2023-08-30T08:31:02;14.70;85.00
24618;DHT22;12762;51.730;5.356;2023-08-30T08:33:29;14.70;85.10
24618;DHT22;12762;51.730;5.356;2023-08-30T08:35:56;14.80;85.30
24618;DHT22;12762;51.730;5.356;2023-08-30T08:38:23;14.80;85.40
24618;DHT22;12762;51.730;5.356;2023-08-30T08:40:53;14.90;85.70
24618;DHT22;12762;51.730;5.356;2023-08-30T08:43:28;14.90;85.80
24618;DHT22;12762;51.730;5.356;2023-08-30T08:45:59;14.90;85.70
24618;DHT22;12762;51.730;5.356;2023-08-30T08:48:28;14.90;86.00
24618;DHT22;12762;51.730;5.356;2023-08-30T08:50:56;15.00;86.00
24618;DHT22;12762;51.730;5.356;2023-08-30T08:53:24;15.00;86.00
24618;DHT22;12762;51.730;5.356;2023-08-30T08:55:51;15.10;86.20
24618;DHT22;12762;51.730;5.356;2023-08-30T08:58:19;15.10;86.20
24618;DHT22;12762;51.730;5.356;2023-08-30T09:00:45;15.10;86.30
24618;DHT22;12762;51.730;5.356;2023-08-30T09:03:13;15.20;86.40
24618;DHT22;12762;51.730;5.356;2023-08-30T09:05:42;15.30;86.80
24618;DHT22;12762;51.730;5.356;2023-08-30T09:08:10;15.40;86.60
24618;DHT22;12762;51.730;5.356;2023-08-30T09:10:38;15.40;86.60
24618;DHT22;12762;51.730;5.356;2023-08-30T09:13:08;15.50;86.90
24618;DHT22;12762;51.730;5.356;2023-08-30T09:15:35;15.80;87.40
24618;DHT22;12762;51.730;5.356;2023-08-30T09:18:15;16.00;87.50
24618;DHT22;12762;51.730;5.356;2023-08-30T09:20:43;16.40;87.90
24618;DHT22;12762;51.730;5.356;2023-08-30T09:23:20;16.60;87.10
24618;DHT22;12762;51.730;5.356;2023-08-30T09:25:54;16.70;86.90
24618;DHT22;12762;51.730;5.356;2023-08-30T09:28:21;16.90;87.00
24618;DHT22;12762;51.730;5.356;2023-08-30T09:30:52;17.10;86.90
24618;DHT22;12762;51.730;5.356;2023-08-30T09:33:32;17.30;86.60
24618;DHT22;12762;51.730;5.356;2023-08-30T09:36:02;17.40;87.10
24618;DHT22;12762;51.730;5.356;2023-08-30T09:38:28;17.60;86.30
24618;DHT22;12762;51.730;5.356;2023-08-30T09:41:03;17.70;86.00
24618;DHT22;12762;51.730;5.356;2023-08-30T09:43:32;17.70;85.70
24618;DHT22;12762;51.730;5.356;2023-08-30T09:46:04;17.70;85.60
24618;DHT22;12762;51.730;5.356;2023-08-30T09:48:32;17.80;85.80
24618;DHT22;12762;51.730;5.356;2023-08-30T09:51:02;17.90;85.60
24618;DHT22;12762;51.730;5.356;2023-08-30T09:53:33;17.90;85.60
24618;DHT22;12762;51.730;5.356;2023-08-30T09:58:38;18.00;85.70
24618;DHT22;12762;51.730;5.356;2023-08-30T10:01:07;18.00;85.40
24618;DHT22;12762;51.730;5.356;2023-08-30T10:03:34;18.00;85.00
24618;DHT22;12762;51.730;5.356;2023-08-30T10:06:04;18.00;85.20
24618;DHT22;12762;51.730;5.356;2023-08-30T10:08:33;18.00;85.30
24618;DHT22;12762;51.730;5.356;2023-08-30T10:11:00;18.10;85.70
24618;DHT22;12762;51.730;5.356;2023-08-30T10:13:29;18.30;86.10
24618;DHT22;12762;51.730;5.356;2023-08-30T10:16:00;18.60;85.80
24618;DHT22;12762;51.730;5.356;2023-08-30T10:18:29;18.80;85.60
24618;DHT22;12762;51.730;5.356;2023-08-30T10:20:59;19.00;86.10
24618;DHT22;12762;51.730;5.356;2023-08-30T10:23:27;19.30;85.20
24618;DHT22;12762;51.730;5.356;2023-08-30T10:25:55;19.60;84.80
24618;DHT22;12762;51.730;5.356;2023-08-30T10:28:23;19.90;84.20
24618;DHT22;12762;51.730;5.356;2023-08-30T10:30:52;20.10;83.80
24618;DHT22;12762;51.730;5.356;2023-08-30T10:33:19;20.40;83.30
24618;DHT22;12762;51.730;5.356;2023-08-30T10:35:48;20.60;82.40
24618;DHT22;12762;51.730;5.356;2023-08-30T10:38:26;20.60;81.60
24618;DHT22;12762;51.730;5.356;2023-08-30T10:40:54;20.50;81.10
24618;DHT22;12762;51.730;5.356;2023-08-30T10:43:34;20.30;81.10
24618;DHT22;12762;51.730;5.356;2023-08-30T10:46:03;20.20;80.90
24618;DHT22;12762;51.730;5.356;2023-08-30T10:48:40;20.00;80.60
24618;DHT22;12762;51.730;5.356;2023-08-30T10:51:21;19.70;80.30
24618;DHT22;12762;51.730;5.356;2023-08-30T10:53:59;19.60;80.70
24618;DHT22;12762;51.730;5.356;2023-08-30T10:56:28;19.60;81.70
24618;DHT22;12762;51.730;5.356;2023-08-30T10:58:55;19.80;82.20
24618;DHT22;12762;51.730;5.356;2023-08-30T11:01:28;20.20;82.10
24618;DHT22;12762;51.730;5.356;2023-08-30T11:03:56;20.40;81.10
24618;DHT22;12762;51.730;5.356;2023-08-30T11:06:44;20.50;80.50
24618;DHT22;12762;51.730;5.356;2023-08-30T11:09:24;20.70;80.00
24618;DHT22;12762;51.730;5.356;2023-08-30T11:11:51;20.80;79.60
24618;DHT22;12762;51.730;5.356;2023-08-30T11:14:20;20.90;79.50
24618;DHT22;12762;51.730;5.356;2023-08-30T11:16:47;21.00;79.30
24618;DHT22;12762;51.730;5.356;2023-08-30T11:19:14;21.20;79.30
24618;DHT22;12762;51.730;5.356;2023-08-30T11:21:44;21.50;79.30
24618;DHT22;12762;51.730;5.356;2023-08-30T11:24:12;21.60;78.10
24618;DHT22;12762;51.730;5.356;2023-08-30T11:26:39;21.60;77.10
24618;DHT22;12762;51.730;5.356;2023-08-30T11:29:07;21.40;76.70
24618;DHT22;12762;51.730;5.356;2023-08-30T11:31:37;21.40;76.80
24618;DHT22;12762;51.730;5.356;2023-08-30T11:34:03;21.30;76.50
24618;DHT22;12762;51.730;5.356;2023-08-30T11:36:32;21.30;77.30
24618;DHT22;12762;51.730;5.356;2023-08-30T11:38:59;21.20;76.30
24618;DHT22;12762;51.730;5.356;2023-08-30T11:41:26;21.00;75.80
24618;DHT22;12762;51.730;5.356;2023-08-30T11:43:58;20.80;75.60
24618;DHT22;12762;51.730;5.356;2023-08-30T11:46:25;20.60;75.50
24618;DHT22;12762;51.730;5.356;2023-08-30T11:48:52;20.30;75.60
24618;DHT22;12762;51.730;5.356;2023-08-30T11:51:22;20.20;75.90
24618;DHT22;12762;51.730;5.356;2023-08-30T11:53:49;20.20;76.90
24618;DHT22;12762;51.730;5.356;2023-08-30T11:56:16;20.40;77.20
24618;DHT22;12762;51.730;5.356;2023-08-30T11:58:47;20.80;77.30
24618;DHT22;12762;51.730;5.356;2023-08-30T12:01:14;21.10;76.20
24618;DHT22;12762;51.730;5.356;2023-08-30T12:03:41;21.30;75.00
24618;DHT22;12762;51.730;5.356;2023-08-30T12:06:11;21.50;74.10
24618;DHT22;12762;51.730;5.356;2023-08-30T12:08:39;21.60;73.60
24618;DHT22;12762;51.730;5.356;2023-08-30T12:11:06;21.70;73.70
24618;DHT22;12762;51.730;5.356;2023-08-30T12:13:43;21.90;74.10
24618;DHT22;12762;51.730;5.356;2023-08-30T12:16:16;22.30;74.20
24618;DHT22;12762;51.730;5.356;2023-08-30T12:18:44;22.70;72.80
24618;DHT22;12762;51.730;5.356;2023-08-30T12:21:13;22.70;71.90
24618;DHT22;12762;51.730;5.356;2023-08-30T12:23:40;22.70;70.70
24618;DHT22;12762;51.730;5.356;2023-08-30T12:26:08;22.50;70.00
24618;DHT22;12762;51.730;5.356;2023-08-30T12:28:40;22.40;69.70
24618;DHT22;12762;51.730;5.356;2023-08-30T12:31:07;22.30;70.00
24618;DHT22;12762;51.730;5.356;2023-08-30T12:33:37;22.40;70.20
24618;DHT22;12762;51.730;5.356;2023-08-30T12:36:06;22.40;69.50
24618;DHT22;12762;51.730;5.356;2023-08-30T12:38:37;22.30;69.00
24618;DHT22;12762;51.730;5.356;2023-08-30T12:41:04;22.10;69.20
24618;DHT22;12762;51.730;5.356;2023-08-30T12:43:31;22.10;70.30
24618;DHT22;12762;51.730;5.356;2023-08-30T12:45:58;22.10;69.60
24618;DHT22;12762;51.730;5.356;2023-08-30T12:48:25;22.20;69.20
24618;DHT22;12762;51.730;5.356;2023-08-30T12:50:52;22.10;68.80
24618;DHT22;12762;51.730;5.356;2023-08-30T12:53:18;22.10;68.60
24618;DHT22;12762;51.730;5.356;2023-08-30T12:55:45;22.10;68.20
24618;DHT22;12762;51.730;5.356;2023-08-30T12:58:12;22.00;68.40
24618;DHT22;12762;51.730;5.356;2023-08-30T13:00:40;22.10;68.10
24618;DHT22;12762;51.730;5.356;2023-08-30T13:03:07;22.00;68.00
24618;DHT22;12762;51.730;5.356;2023-08-30T13:05:38;22.00;67.50
24618;DHT22;12762;51.730;5.356;2023-08-30T13:08:05;21.90;67.50
24618;DHT22;12762;51.730;5.356;2023-08-30T13:10:32;21.80;68.20
24618;DHT22;12762;51.730;5.356;2023-08-30T13:12:59;21.90;68.00
24618;DHT22;12762;51.730;5.356;2023-08-30T13:15:26;22.30;68.00
24618;DHT22;12762;51.730;5.356;2023-08-30T13:17:55;22.50;67.00
24618;DHT22;12762;51.730;5.356;2023-08-30T13:20:22;22.80;66.30
24618;DHT22;12762;51.730;5.356;2023-08-30T13:22:49;22.90;65.80
24618;DHT22;12762;51.730;5.356;2023-08-30T13:25:16;23.00;65.80
24618;DHT22;12762;51.730;5.356;2023-08-30T13:27:43;22.90;65.10
24618;DHT22;12762;51.730;5.356;2023-08-30T13:30:10;22.80;64.90
24618;DHT22;12762;51.730;5.356;2023-08-30T13:32:37;22.70;65.20
24618;DHT22;12762;51.730;5.356;2023-08-30T13:35:04;22.50;65.10
24618;DHT22;12762;51.730;5.356;2023-08-30T13:37:33;22.50;65.00
24618;DHT22;12762;51.730;5.356;2023-08-30T13:40:00;22.50;65.20
24618;DHT22;12762;51.730;5.356;2023-08-30T13:42:27;22.50;65.00
24618;DHT22;12762;51.730;5.356;2023-08-30T13:44:54;22.60;64.90
24618;DHT22;12762;51.730;5.356;2023-08-30T13:47:24;22.80;64.70
24618;DHT22;12762;51.730;5.356;2023-08-30T13:49:51;23.00;64.10
24618;DHT22;12762;51.730;5.356;2023-08-30T13:52:17;23.20;64.40
24618;DHT22;12762;51.730;5.356;2023-08-30T13:54:44;23.40;63.80
24618;DHT22;12762;51.730;5.356;2023-08-30T13:57:11;23.40;62.90
24618;DHT22;12762;51.730;5.356;2023-08-30T13:59:38;23.50;63.10
24618;DHT22;12762;51.730;5.356;2023-08-30T14:02:05;23.70;62.30
24618;DHT22;12762;51.730;5.356;2023-08-30T14:04:32;23.70;62.10
24618;DHT22;12762;51.730;5.356;2023-08-30T14:06:59;23.70;62.00
24618;DHT22;12762;51.730;5.356;2023-08-30T14:09:26;23.50;61.80
24618;DHT22;12762;51.730;5.356;2023-08-30T14:11:59;23.30;61.60
24618;DHT22;12762;51.730;5.356;2023-08-30T14:14:26;23.10;61.70
24618;DHT22;12762;51.730;5.356;2023-08-30T14:16:53;23.00;61.90
24618;DHT22;12762;51.730;5.356;2023-08-30T14:19:22;22.90;61.80
24618;DHT22;12762;51.730;5.356;2023-08-30T14:21:49;22.80;61.30
24618;DHT22;12762;51.730;5.356;2023-08-30T14:24:16;22.60;61.70
24618;DHT22;12762;51.730;5.356;2023-08-30T14:26:52;22.40;62.40
24618;DHT22;12762;51.730;5.356;2023-08-30T14:29:20;22.30;62.70
24618;DHT22;12762;51.730;5.356;2023-08-30T14:31:47;22.20;63.10
24618;DHT22;12762;51.730;5.356;2023-08-30T14:34:15;22.30;63.70
24618;DHT22;12762;51.730;5.356;2023-08-30T14:36:42;22.40;63.80
24618;DHT22;12762;51.730;5.356;2023-08-30T14:39:09;22.50;63.60
24618;DHT22;12762;51.730;5.356;2023-08-30T14:41:39;22.60;62.80
24618;DHT22;12762;51.730;5.356;2023-08-30T14:44:07;22.40;62.00
24618;DHT22;12762;51.730;5.356;2023-08-30T14:46:35;22.10;61.90
24618;DHT22;12762;51.730;5.356;2023-08-30T14:49:03;21.90;62.30
24618;DHT22;12762;51.730;5.356;2023-08-30T14:51:30;21.70;62.20
24618;DHT22;12762;51.730;5.356;2023-08-30T14:54:00;21.50;62.40
24618;DHT22;12762;51.730;5.356;2023-08-30T14:56:27;21.40;63.50
24618;DHT22;12762;51.730;5.356;2023-08-30T14:58:54;21.40;63.50
24618;DHT22;12762;51.730;5.356;2023-08-30T15:01:21;21.40;63.20
24618;DHT22;12762;51.730;5.356;2023-08-30T15:03:48;21.20;62.80
24618;DHT22;12762;51.730;5.356;2023-08-30T15:06:15;21.10;62.90
24618;DHT22;12762;51.730;5.356;2023-08-30T15:08:44;20.90;63.10
24618;DHT22;12762;51.730;5.356;2023-08-30T15:11:11;20.70;63.40
24618;DHT22;12762;51.730;5.356;2023-08-30T15:13:39;20.60;64.00
24618;DHT22;12762;51.730;5.356;2023-08-30T15:16:05;20.70;64.60
24618;DHT22;12762;51.730;5.356;2023-08-30T15:18:32;20.80;65.00
24618;DHT22;12762;51.730;5.356;2023-08-30T15:20:59;21.00;65.20
24618;DHT22;12762;51.730;5.356;2023-08-30T15:23:29;21.20;65.30
24618;DHT22;12762;51.730;5.356;2023-08-30T15:25:58;21.20;65.00
24618;DHT22;12762;51.730;5.356;2023-08-30T15:28:25;21.20;64.50
24618;DHT22;12762;51.730;5.356;2023-08-30T15:30:52;21.00;64.30
24618;DHT22;12762;51.730;5.356;2023-08-30T15:33:19;20.90;64.80
24618;DHT22;12762;51.730;5.356;2023-08-30T15:36:06;20.80;65.00
24618;DHT22;12762;51.730;5.356;2023-08-30T15:38:33;20.70;65.30
24618;DHT22;12762;51.730;5.356;2023-08-30T15:41:09;20.70;65.30
24618;DHT22;12762;51.730;5.356;2023-08-30T15:43:55;20.50;65.10